createdAt,value
2022-10-18T00:00:16.963Z,3.00
2022-10-18T00:02:43.471Z,2.15
2022-10-18T00:05:10.187Z,2.58
2022-10-18T00:07:36.679Z,2.47
2022-10-18T00:10:04.595Z,2.40
2022-10-18T00:12:33.496Z,2.58
2022-10-18T00:15:00.034Z,2.30
2022-10-18T00:17:26.544Z,2.25
2022-10-18T00:19:53.156Z,2.17
2022-10-18T00:22:19.592Z,2.33
2022-10-18T00:24:46.035Z,2.72
2022-10-18T00:27:12.609Z,2.42
2022-10-18T00:29:39.103Z,2.30
2022-10-18T00:32:05.781Z,2.40
2022-10-18T00:34:32.272Z,2.35
2022-10-18T00:36:58.707Z,2.35
2022-10-18T00:39:25.150Z,2.10
2022-10-18T00:41:52.426Z,2.33
2022-10-18T00:44:18.777Z,2.30
2022-10-18T00:46:48.335Z,2.80
2022-10-18T00:49:33.988Z,1.90
2022-10-18T00:52:09.554Z,2.20
2022-10-18T00:54:39.232Z,2.13
2022-10-18T00:57:06.829Z,2.47
2022-10-18T00:59:34.258Z,2.70
2022-10-18T01:02:01.914Z,2.30
2022-10-18T01:04:28.416Z,2.40
2022-10-18T01:07:33.520Z,2.10
2022-10-18T01:10:05.825Z,2.97
2022-10-18T01:12:55.937Z,1.98
2022-10-18T01:15:39.223Z,2.17
2022-10-18T01:18:23.925Z,2.40
2022-10-18T01:21:09.223Z,1.92
2022-10-18T01:24:00.270Z,2.45
2022-10-18T01:27:10.747Z,2.33
2022-10-18T01:30:25.292Z,2.40
2022-10-18T01:32:55.097Z,2.47
2022-10-18T01:35:29.320Z,2.30
2022-10-18T01:37:59.769Z,2.47
2022-10-18T01:40:26.910Z,2.65
2022-10-18T01:42:53.480Z,2.85
2022-10-18T01:45:22.093Z,2.03
2022-10-18T01:47:49.957Z,2.10
2022-10-18T01:50:32.684Z,2.38
2022-10-18T01:52:59.291Z,2.08
2022-10-18T01:55:37.554Z,2.60
2022-10-18T01:58:17.009Z,2.47
2022-10-18T02:00:44.262Z,2.63
2022-10-18T02:03:22.485Z,2.65
2022-10-18T02:05:54.325Z,2.42
2022-10-18T02:08:28.413Z,1.90
2022-10-18T02:11:00.838Z,2.58
2022-10-18T02:13:33.363Z,2.15
2022-10-18T02:16:07.629Z,2.42
2022-10-18T02:18:39.203Z,2.38
2022-10-18T02:21:09.971Z,2.80
2022-10-18T02:23:37.503Z,1.90
2022-10-18T02:26:04.316Z,2.28
2022-10-18T02:28:31.466Z,2.35
2022-10-18T02:31:19.075Z,2.42
2022-10-18T02:33:58.810Z,1.98
2022-10-18T02:36:40.572Z,2.10
2022-10-18T02:39:16.395Z,2.60
2022-10-18T02:41:43.365Z,2.42
2022-10-18T02:44:11.043Z,2.75
2022-10-18T02:46:38.519Z,2.72
2022-10-18T02:49:04.947Z,2.22
2022-10-18T02:51:31.513Z,2.33
2022-10-18T02:53:58.051Z,2.20
2022-10-18T02:56:24.605Z,3.30
2022-10-18T02:58:51.000Z,2.53
2022-10-18T03:01:17.556Z,3.08
2022-10-18T03:03:43.965Z,2.83
2022-10-18T03:06:10.472Z,2.50
2022-10-18T03:08:36.902Z,2.60
2022-10-18T03:11:03.383Z,3.05
2022-10-18T03:16:01.413Z,2.60
2022-10-18T03:18:28.047Z,3.22
2022-10-18T03:20:54.520Z,2.90
2022-10-18T03:23:20.963Z,3.17
2022-10-18T03:25:47.452Z,2.72
2022-10-18T03:28:13.957Z,2.85
2022-10-18T03:30:40.439Z,2.55
2022-10-18T03:33:06.938Z,2.88
2022-10-18T03:35:33.531Z,2.80
2022-10-18T03:38:00.022Z,2.67
2022-10-18T03:40:26.578Z,2.65
2022-10-18T03:42:53.044Z,2.78
2022-10-18T03:45:19.527Z,2.28
2022-10-18T03:47:46.076Z,2.30
2022-10-18T03:50:12.490Z,2.05
2022-10-18T03:52:38.890Z,2.20
2022-10-18T03:55:05.988Z,2.50
2022-10-18T03:57:32.394Z,2.17
2022-10-18T03:59:58.856Z,2.05
2022-10-18T04:02:25.806Z,2.58
2022-10-18T04:04:52.591Z,2.53
2022-10-18T04:07:19.236Z,3.10
2022-10-18T04:09:45.737Z,2.97
2022-10-18T04:12:12.457Z,3.20
2022-10-18T04:14:38.885Z,3.13
2022-10-18T04:17:05.329Z,3.00
2022-10-18T04:19:31.764Z,3.08
2022-10-18T04:21:58.225Z,3.22
2022-10-18T04:24:24.800Z,3.33
2022-10-18T04:26:51.489Z,3.67
2022-10-18T04:29:17.947Z,3.35
2022-10-18T04:31:44.365Z,3.13
2022-10-18T04:34:10.939Z,3.20
2022-10-18T04:36:37.384Z,3.13
2022-10-18T04:39:03.925Z,3.08
2022-10-18T04:41:30.504Z,3.33
2022-10-18T04:43:56.926Z,3.30
2022-10-18T04:46:23.361Z,2.88
2022-10-18T04:48:49.790Z,2.78
2022-10-18T04:51:16.258Z,3.30
2022-10-18T04:53:42.645Z,3.40
2022-10-18T04:56:09.056Z,3.42
2022-10-18T04:58:35.463Z,3.05
2022-10-18T05:01:08.040Z,2.83
2022-10-18T05:03:35.150Z,2.90
2022-10-18T05:06:03.285Z,2.60
2022-10-18T05:08:31.572Z,3.63
2022-10-18T05:10:58.067Z,3.85
2022-10-18T05:13:24.658Z,4.13
2022-10-18T05:15:51.420Z,4.22
2022-10-18T05:18:17.943Z,5.38
2022-10-18T05:20:44.625Z,5.72
2022-10-18T05:23:11.180Z,6.15
2022-10-18T05:25:42.269Z,5.95
2022-10-18T05:28:15.577Z,5.45
2022-10-18T05:30:42.617Z,6.72
2022-10-18T05:33:09.509Z,6.72
2022-10-18T05:35:36.296Z,6.80
2022-10-18T05:38:05.822Z,6.45
2022-10-18T05:40:34.768Z,7.43
2022-10-18T05:45:27.604Z,7.75
2022-10-18T05:47:54.386Z,8.65
2022-10-18T05:50:20.886Z,7.95
2022-10-18T05:52:47.336Z,7.68
2022-10-18T05:55:13.979Z,7.43
2022-10-18T05:57:40.419Z,7.22
2022-10-18T06:00:07.478Z,7.75
2022-10-18T06:02:33.935Z,7.35
2022-10-18T06:05:00.405Z,7.72
2022-10-18T06:07:26.862Z,7.97
2022-10-18T06:09:53.280Z,7.45
2022-10-18T06:12:19.728Z,7.80
2022-10-18T06:14:48.400Z,7.35
2022-10-18T06:17:14.880Z,6.25
2022-10-18T06:19:43.388Z,6.38
2022-10-18T06:22:10.849Z,7.30
2022-10-18T06:24:37.423Z,8.07
2022-10-18T06:27:09.351Z,8.18
2022-10-18T06:29:37.007Z,6.68
2022-10-18T06:32:04.694Z,7.50
2022-10-18T06:34:31.149Z,7.60
2022-10-18T06:36:58.801Z,8.38
2022-10-18T06:39:25.850Z,8.02
2022-10-18T06:41:52.837Z,7.88
2022-10-18T06:44:20.376Z,9.05
2022-10-18T06:46:48.417Z,9.57
2022-10-18T06:49:18.974Z,8.88
2022-10-18T06:51:46.208Z,8.60
2022-10-18T06:54:18.000Z,8.52
2022-10-18T06:56:45.429Z,7.82
2022-10-18T06:59:12.027Z,8.45
2022-10-18T07:01:38.918Z,8.05
2022-10-18T07:04:05.427Z,7.63
2022-10-18T07:06:31.978Z,8.90
2022-10-18T07:08:58.716Z,8.15
2022-10-18T07:11:26.898Z,7.95
2022-10-18T07:13:57.118Z,7.80
2022-10-18T07:16:23.833Z,8.68
2022-10-18T07:18:51.523Z,9.13
2022-10-18T07:21:21.298Z,9.07
2022-10-18T07:23:48.934Z,8.93
2022-10-18T07:26:27.657Z,8.93
2022-10-18T07:28:59.261Z,9.07
2022-10-18T07:31:26.126Z,9.13
2022-10-18T07:33:53.254Z,9.95
2022-10-18T07:36:21.412Z,9.82
2022-10-18T07:38:48.985Z,10.70
2022-10-18T07:41:15.550Z,11.02
2022-10-18T07:43:48.866Z,9.90
2022-10-18T07:46:16.268Z,10.25
2022-10-18T07:48:43.438Z,10.65
2022-10-18T07:51:10.618Z,10.50
2022-10-18T07:53:49.364Z,10.90
2022-10-18T07:56:20.862Z,11.15
2022-10-18T07:58:51.331Z,11.40
2022-10-18T08:01:19.033Z,10.90
2022-10-18T08:03:45.984Z,10.77
2022-10-18T08:06:16.264Z,11.70
2022-10-18T08:08:43.140Z,10.00
2022-10-18T08:11:18.184Z,10.10
2022-10-18T08:16:17.078Z,12.07
2022-10-18T08:18:43.964Z,12.02
2022-10-18T08:21:12.916Z,13.60
2022-10-18T08:23:39.741Z,14.00
2022-10-18T08:26:09.508Z,14.38
2022-10-18T08:28:39.387Z,14.88
2022-10-18T08:31:08.754Z,15.35
2022-10-18T08:33:36.262Z,14.15
2022-10-18T08:36:24.528Z,14.73
2022-10-18T08:38:51.389Z,16.05
2022-10-18T08:41:36.482Z,16.05
2022-10-18T08:44:20.024Z,16.42
2022-10-18T08:46:49.223Z,19.13
2022-10-18T08:49:23.613Z,18.15
2022-10-18T08:51:51.664Z,19.95
2022-10-18T08:54:37.509Z,21.73
2022-10-18T08:57:11.296Z,21.35
2022-10-18T08:59:41.651Z,23.13
2022-10-18T09:02:49.914Z,24.52
2022-10-18T09:05:36.416Z,26.00
2022-10-18T09:08:46.281Z,26.02
2022-10-18T09:11:21.270Z,29.27
2022-10-18T09:14:07.302Z,26.27
2022-10-18T09:16:58.112Z,27.02
2022-10-18T09:19:43.471Z,25.45
2022-10-18T09:22:16.454Z,22.25
2022-10-18T09:24:55.973Z,20.05
2022-10-18T09:27:34.986Z,22.92
2022-10-18T09:30:10.410Z,21.65
2022-10-18T09:32:50.964Z,26.63
2022-10-18T09:35:25.032Z,22.27
2022-10-18T09:38:00.866Z,22.98
2022-10-18T09:40:30.667Z,21.02
2022-10-18T09:43:04.513Z,19.73
2022-10-18T09:45:35.190Z,19.95
2022-10-18T09:48:20.241Z,18.90
2022-10-18T09:51:12.513Z,19.27
2022-10-18T09:53:45.330Z,18.08
2022-10-18T09:56:50.058Z,17.55
2022-10-18T09:59:25.503Z,20.25
2022-10-18T10:01:52.024Z,17.98
2022-10-18T10:04:18.474Z,16.10
2022-10-18T10:06:53.210Z,16.63
2022-10-18T10:09:35.983Z,17.15
2022-10-18T10:12:02.775Z,16.55
2022-10-18T10:14:30.724Z,16.08
2022-10-18T10:17:20.837Z,18.05
2022-10-18T10:20:02.093Z,18.05
2022-10-18T10:22:35.954Z,16.55
2022-10-18T10:25:03.080Z,16.27
2022-10-18T10:27:46.271Z,16.48
2022-10-18T10:30:24.190Z,16.77
2022-10-18T10:32:52.166Z,17.08
2022-10-18T10:35:55.561Z,15.25
2022-10-18T10:38:28.130Z,15.93
2022-10-18T10:40:55.546Z,15.30
2022-10-18T10:43:37.753Z,16.27
2022-10-18T10:46:09.946Z,14.60
2022-10-18T10:48:49.505Z,14.10
2022-10-18T10:51:38.457Z,14.32
2022-10-18T10:54:15.954Z,12.88
2022-10-18T10:57:02.668Z,11.13
2022-10-18T10:59:38.517Z,11.52
2022-10-18T11:02:14.347Z,10.75
2022-10-18T11:04:42.402Z,9.25
2022-10-18T11:07:40.325Z,9.77
2022-10-18T11:10:17.636Z,9.05
2022-10-18T11:12:51.187Z,9.93
2022-10-18T11:15:24.697Z,9.82
2022-10-18T11:18:19.693Z,9.07
2022-10-18T11:20:52.246Z,8.07
2022-10-18T11:23:19.554Z,8.45
2022-10-18T11:26:13.721Z,7.55
2022-10-18T11:29:32.307Z,7.53
2022-10-18T11:32:20.448Z,6.15
2022-10-18T11:35:02.042Z,5.50
2022-10-18T11:37:36.125Z,6.07
2022-10-18T11:40:32.562Z,6.10
2022-10-18T11:43:30.200Z,6.88
2022-10-18T11:46:27.906Z,6.72
2022-10-18T11:49:16.668Z,7.20
2022-10-18T11:52:12.291Z,8.15
2022-10-18T11:55:02.855Z,6.63
2022-10-18T11:57:41.692Z,7.53
2022-10-18T12:00:44.745Z,6.30
2022-10-18T12:03:26.515Z,7.40
2022-10-18T12:05:55.625Z,7.00
2022-10-18T12:08:32.983Z,7.00
2022-10-18T12:11:09.757Z,6.65
2022-10-18T12:13:50.708Z,6.32
2022-10-18T12:19:11.607Z,6.60
2022-10-18T12:21:38.971Z,6.22
2022-10-18T12:24:13.640Z,6.57
2022-10-18T12:26:40.385Z,5.90
2022-10-18T12:29:35.283Z,5.53
2022-10-18T12:32:06.538Z,4.63
2022-10-18T12:34:39.998Z,4.60
2022-10-18T12:37:23.426Z,4.57
2022-10-18T12:40:14.659Z,3.88
2022-10-18T12:42:48.491Z,3.70
2022-10-18T12:45:27.113Z,3.50
2022-10-18T12:47:55.182Z,4.43
2022-10-18T12:50:27.827Z,3.90
2022-10-18T12:53:19.214Z,3.67
2022-10-18T12:55:54.161Z,2.60
2022-10-18T12:58:20.598Z,3.08
2022-10-18T13:00:47.910Z,3.67
2022-10-18T13:03:17.317Z,3.78
2022-10-18T13:05:56.194Z,3.67
2022-10-18T13:08:33.979Z,3.35
2022-10-18T13:11:12.284Z,3.47
2022-10-18T13:13:51.019Z,2.65
2022-10-18T13:16:23.745Z,2.80
2022-10-18T13:18:57.159Z,2.80
2022-10-18T13:21:34.944Z,3.28
2022-10-18T13:24:15.775Z,2.85
2022-10-18T13:26:54.137Z,3.47
2022-10-18T13:29:40.088Z,3.53
2022-10-18T13:32:31.394Z,3.00
2022-10-18T13:34:59.429Z,2.92
2022-10-18T13:37:27.203Z,3.35
2022-10-18T13:40:24.325Z,2.60
2022-10-18T13:43:38.252Z,3.08
2022-10-18T13:45:43.926Z,2.90
2022-10-18T13:48:29.209Z,3.00
2022-10-18T13:51:06.733Z,3.50
2022-10-18T13:53:58.409Z,2.78
2022-10-18T13:56:41.338Z,3.03
2022-10-18T13:59:33.619Z,2.40
2022-10-18T14:02:42.822Z,2.88
2022-10-18T14:05:33.998Z,2.53
2022-10-18T14:08:10.361Z,2.97
2022-10-18T14:11:01.868Z,3.30
2022-10-18T14:13:41.977Z,2.80
2022-10-18T14:16:34.487Z,2.53
2022-10-18T14:19:22.943Z,2.22
2022-10-18T14:21:55.724Z,2.60
2022-10-18T14:24:25.437Z,1.90
2022-10-18T14:27:20.033Z,2.13
2022-10-18T14:29:48.108Z,2.25
2022-10-18T14:32:32.036Z,1.92
2022-10-18T14:35:30.513Z,2.08
2022-10-18T14:40:40.609Z,1.98
2022-10-18T14:43:14.919Z,2.45
2022-10-18T14:45:42.569Z,2.20
2022-10-18T14:48:16.988Z,2.58
2022-10-18T14:50:47.333Z,1.95
2022-10-18T14:53:21.899Z,2.15
2022-10-18T14:58:28.207Z,2.22
2022-10-18T15:00:54.957Z,1.95
2022-10-18T15:03:22.734Z,2.00
2022-10-18T15:06:02.078Z,2.00
2022-10-18T15:08:42.229Z,1.65
2022-10-18T15:11:11.991Z,1.90
2022-10-18T15:13:54.315Z,2.58
2022-10-18T15:16:24.947Z,1.88
2022-10-18T15:19:24.452Z,1.90
2022-10-18T15:25:06.022Z,1.80
2022-10-18T15:27:36.217Z,2.08
2022-10-18T15:30:18.822Z,2.17
2022-10-18T15:32:51.859Z,2.00
2022-10-18T15:35:30.477Z,1.98
2022-10-18T15:38:02.395Z,1.63
2022-10-18T15:40:28.791Z,2.00
2022-10-18T15:43:01.668Z,2.00
2022-10-18T15:45:35.294Z,1.73
2022-10-18T15:48:17.136Z,1.90
2022-10-18T15:50:53.143Z,1.70
2022-10-18T15:53:29.262Z,1.75
2022-10-18T15:55:58.133Z,1.60
2022-10-18T15:58:37.567Z,1.60
2022-10-18T16:01:05.154Z,1.77
2022-10-18T16:03:36.306Z,2.05
2022-10-18T16:06:08.420Z,2.00
2022-10-18T16:08:42.352Z,1.80
2022-10-18T16:11:17.082Z,1.80
2022-10-18T16:16:30.779Z,1.67
2022-10-18T16:18:57.964Z,1.45
2022-10-18T16:21:27.925Z,1.80
2022-10-18T16:23:54.660Z,1.55
2022-10-18T16:26:22.017Z,1.70
2022-10-18T16:28:49.605Z,1.90
2022-10-18T16:31:18.929Z,1.80
2022-10-18T16:33:46.947Z,2.03
2022-10-18T16:36:16.289Z,1.60
2022-10-18T16:38:43.200Z,1.80
2022-10-18T16:41:10.204Z,2.00
2022-10-18T16:43:37.154Z,1.70
2022-10-18T16:46:04.680Z,1.63
2022-10-18T16:48:31.732Z,2.13
2022-10-18T16:50:59.168Z,1.95
2022-10-18T16:53:26.201Z,1.92
2022-10-18T16:55:56.010Z,1.65
2022-10-18T17:00:55.120Z,2.53
2022-10-18T17:03:21.879Z,2.03
2022-10-18T17:05:48.506Z,1.75
2022-10-18T17:08:26.785Z,1.60
2022-10-18T17:10:56.180Z,1.80
2022-10-18T17:13:24.337Z,1.60
2022-10-18T17:15:51.866Z,1.88
2022-10-18T17:18:22.299Z,1.55
2022-10-18T17:20:49.996Z,1.38
2022-10-18T17:23:17.097Z,1.60
2022-10-18T17:25:57.548Z,1.60
2022-10-18T17:28:31.730Z,1.92
2022-10-18T17:30:58.303Z,2.30
2022-10-18T17:33:24.761Z,2.78
2022-10-18T17:35:51.235Z,2.50
2022-10-18T17:38:17.692Z,2.78
2022-10-18T17:40:44.128Z,2.70
2022-10-18T17:43:13.272Z,3.30
2022-10-18T17:45:50.934Z,3.08
2022-10-18T17:48:17.935Z,2.13
2022-10-18T17:50:44.623Z,3.20
2022-10-18T17:53:12.933Z,3.00
2022-10-18T17:55:39.851Z,3.42
2022-10-18T17:58:06.310Z,3.80
2022-10-18T18:00:32.942Z,4.57
2022-10-18T18:03:01.051Z,3.33
2022-10-18T18:05:32.018Z,3.90
2022-10-18T18:08:03.573Z,4.53
2022-10-18T18:10:33.199Z,4.10
2022-10-18T18:13:00.043Z,3.75
2022-10-18T18:15:26.630Z,4.07
2022-10-18T18:17:57.151Z,3.60
2022-10-18T18:20:24.489Z,2.63
2022-10-18T18:22:51.617Z,2.90
2022-10-18T18:25:18.723Z,3.05
2022-10-18T18:27:45.448Z,3.38
2022-10-18T18:30:12.233Z,3.70
2022-10-18T18:32:39.031Z,3.70
2022-10-18T18:35:06.103Z,2.90
2022-10-18T18:37:32.935Z,3.25
2022-10-18T18:39:59.400Z,3.97
2022-10-18T18:42:25.966Z,3.50
2022-10-18T18:44:52.645Z,3.20
2022-10-18T18:47:21.875Z,3.33
2022-10-18T18:49:49.666Z,3.05
2022-10-18T18:52:16.283Z,3.22
2022-10-18T18:54:42.860Z,3.40
2022-10-18T18:57:09.567Z,3.67
2022-10-18T18:59:36.063Z,2.90
2022-10-18T19:02:02.872Z,2.80
2022-10-18T19:04:29.614Z,2.63
2022-10-18T19:06:56.282Z,3.28
2022-10-18T19:09:23.124Z,3.13
2022-10-18T19:11:54.603Z,2.85
2022-10-18T19:16:57.517Z,2.70
2022-10-18T19:19:26.319Z,2.63
2022-10-18T19:21:58.611Z,3.00
2022-10-18T19:24:27.271Z,2.80
2022-10-18T19:26:59.281Z,3.20
2022-10-18T19:29:30.339Z,2.97
2022-10-18T19:32:00.822Z,3.33
2022-10-18T19:34:29.962Z,2.95
2022-10-18T19:39:31.550Z,3.08
2022-10-18T19:42:00.400Z,2.50
2022-10-18T19:44:30.294Z,2.47
2022-10-18T19:46:57.278Z,2.40
2022-10-18T19:49:24.369Z,2.58
2022-10-18T19:51:51.044Z,2.65
2022-10-18T19:54:17.989Z,2.95
2022-10-18T19:56:45.155Z,2.92
2022-10-18T19:59:12.941Z,3.00
2022-10-18T20:01:39.598Z,2.88
2022-10-18T20:04:08.430Z,3.10
2022-10-18T20:06:36.439Z,3.42
2022-10-18T20:09:03.841Z,2.92
2022-10-18T20:11:30.676Z,3.15
2022-10-18T20:13:57.534Z,2.85
2022-10-18T20:16:28.338Z,3.17
2022-10-18T20:18:59.349Z,3.28
2022-10-18T20:21:27.537Z,3.05
2022-10-18T20:23:54.875Z,2.97
2022-10-18T20:26:43.551Z,2.90
2022-10-18T20:29:10.357Z,2.92
2022-10-18T20:31:38.927Z,2.42
2022-10-18T20:34:08.595Z,2.78
2022-10-18T20:36:35.491Z,2.72
2022-10-18T20:39:02.822Z,2.97
2022-10-18T20:41:30.855Z,2.53
2022-10-18T20:43:59.965Z,2.97
2022-10-18T20:46:29.483Z,2.80
2022-10-18T20:48:56.002Z,2.78
2022-10-18T20:51:22.962Z,2.72
2022-10-18T20:53:50.070Z,2.88
2022-10-18T20:56:20.413Z,3.03
2022-10-18T20:58:49.137Z,2.42
2022-10-18T21:01:27.396Z,3.20
2022-10-18T21:03:56.106Z,2.53
2022-10-18T21:06:22.609Z,2.85
2022-10-18T21:08:53.887Z,2.75
2022-10-18T21:11:20.768Z,2.67
2022-10-18T21:13:51.888Z,2.70
2022-10-18T21:16:18.693Z,2.85
2022-10-18T21:18:45.362Z,2.78
2022-10-18T21:21:15.138Z,2.85
2022-10-18T21:23:41.973Z,2.75
2022-10-18T21:26:13.544Z,2.72
2022-10-18T21:28:40.158Z,2.70
2022-10-18T21:31:21.630Z,2.97
2022-10-18T21:33:52.385Z,2.72
2022-10-18T21:36:19.069Z,2.33
2022-10-18T21:38:46.024Z,3.25
2022-10-18T21:41:15.736Z,3.08
2022-10-18T21:43:44.857Z,2.63
2022-10-18T21:46:12.345Z,2.28
2022-10-18T21:48:42.060Z,2.10
2022-10-18T21:51:09.364Z,2.55
2022-10-18T21:53:35.997Z,2.42
2022-10-18T21:56:06.613Z,2.42
2022-10-18T21:58:34.166Z,2.50
2022-10-18T22:01:00.722Z,2.38
2022-10-18T22:03:27.237Z,2.72
2022-10-18T22:06:01.584Z,2.20
2022-10-18T22:08:28.490Z,2.50
2022-10-18T22:10:57.297Z,2.83
2022-10-18T22:13:23.807Z,2.60
2022-10-18T22:15:50.245Z,2.17
2022-10-18T22:18:17.273Z,2.55
2022-10-18T22:20:53.336Z,2.28
2022-10-18T22:23:21.070Z,2.67
2022-10-18T22:25:47.789Z,2.47
2022-10-18T22:28:14.808Z,2.72
2022-10-18T22:30:41.287Z,2.67
2022-10-18T22:33:07.655Z,2.58
2022-10-18T22:35:34.374Z,2.63
2022-10-18T22:38:00.783Z,2.55
2022-10-18T22:40:27.163Z,2.95
2022-10-18T22:42:53.613Z,2.28
2022-10-18T22:45:20.025Z,2.75
2022-10-18T22:47:46.484Z,2.28
2022-10-18T22:50:12.917Z,2.30
2022-10-18T22:52:39.323Z,2.83
2022-10-18T22:55:06.224Z,2.40
2022-10-18T22:57:32.691Z,2.72
2022-10-18T22:59:59.438Z,2.47
2022-10-18T23:02:25.827Z,2.28
2022-10-18T23:04:52.219Z,2.28
2022-10-18T23:07:18.604Z,2.10
2022-10-18T23:09:45.005Z,2.10
2022-10-18T23:12:11.423Z,2.10
2022-10-18T23:14:37.807Z,2.63
2022-10-18T23:17:04.374Z,2.15
2022-10-18T23:19:30.864Z,2.08
2022-10-18T23:21:57.257Z,2.20
2022-10-18T23:24:23.693Z,2.60
2022-10-18T23:26:50.077Z,2.15
2022-10-18T23:29:16.486Z,2.33
2022-10-18T23:31:42.974Z,2.17
2022-10-18T23:34:09.631Z,2.10
2022-10-18T23:36:36.166Z,2.20
2022-10-18T23:39:03.908Z,1.90
2022-10-18T23:41:30.495Z,1.70
2022-10-18T23:43:56.914Z,2.10
2022-10-18T23:46:23.856Z,1.75
2022-10-18T23:48:50.371Z,1.98
2022-10-18T23:51:17.492Z,2.33
2022-10-18T23:53:43.982Z,2.10
2022-10-18T23:56:13.088Z,2.20
2022-10-18T23:58:40.507Z,2.38
